Aguilar, Colorado
Current Conditions -  °F | °C
As of 9:54 AM on Thursday 27 Nov 2014 (Local Time) from KTAD Reporting Station
Clear Clear  
Wind Chill: 50°   Ceiling: Unl
Heat Index: 50°   Visibility: 10mi
Dew Point: 27°   Wind: 3mph
Humidity: 41%   Direction: 350°N
Pressure: 30.31"   Gusts: NA
Location:  37.4°N, 104.65°W
Report Text: KTAD 271654Z AUTO 35003KT 10SM CLR 10/M03 A3031 RMK AO2 SLP256 T01001028
Loading
Personal Weather Stations






























Interactive Weather Map New forecast layout! Learn more

10-Day Weather Forecast

Advertisements
Track Severe Weather on mobile